sensor_id;sensor_type;location;lat;lon;timestamp;pressure;altitude;pressure_sealevel;temperature;humidity
33506;BME280;19843;51.040;13.782;2023-02-08T00:00:57;102910.88;;;-5.30;89.20
33506;BME280;19843;51.040;13.782;2023-02-08T00:03:24;102914.44;;;-5.28;89.25
33506;BME280;19843;51.040;13.782;2023-02-08T00:05:53;102917.13;;;-5.26;89.65
33506;BME280;19843;51.040;13.782;2023-02-08T00:08:20;102907.97;;;-5.37;89.60
33506;BME280;19843;51.040;13.782;2023-02-08T00:10:49;102909.22;;;-5.50;90.04
33506;BME280;19843;51.040;13.782;2023-02-08T00:13:16;102910.00;;;-5.30;89.82
33506;BME280;19843;51.040;13.782;2023-02-08T00:15:44;102916.59;;;-5.17;88.93
33506;BME280;19843;51.040;13.782;2023-02-08T00:18:12;102913.81;;;-4.98;87.31
33506;BME280;19843;51.040;13.782;2023-02-08T00:20:40;102906.53;;;-5.29;87.88
33506;BME280;19843;51.040;13.782;2023-02-08T00:23:08;102913.09;;;-5.40;88.02
33506;BME280;19843;51.040;13.782;2023-02-08T00:25:35;102915.16;;;-5.54;89.04
33506;BME280;19843;51.040;13.782;2023-02-08T00:28:04;102905.66;;;-5.52;89.74
33506;BME280;19843;51.040;13.782;2023-02-08T00:30:34;102904.75;;;-5.53;89.68
33506;BME280;19843;51.040;13.782;2023-02-08T00:33:02;102916.88;;;-5.55;89.77
33506;BME280;19843;51.040;13.782;2023-02-08T00:35:29;102913.63;;;-5.49;89.66
33506;BME280;19843;51.040;13.782;2023-02-08T00:37:56;102921.16;;;-5.57;89.78
33506;BME280;19843;51.040;13.782;2023-02-08T00:40:24;102911.63;;;-5.56;90.34
33506;BME280;19843;51.040;13.782;2023-02-08T00:42:53;102911.31;;;-5.41;89.07
33506;BME280;19843;51.040;13.782;2023-02-08T00:45:21;102915.81;;;-5.37;88.47
33506;BME280;19843;51.040;13.782;2023-02-08T00:47:49;102903.09;;;-5.51;87.52
33506;BME280;19843;51.040;13.782;2023-02-08T00:50:16;102910.88;;;-5.30;87.85
33506;BME280;19843;51.040;13.782;2023-02-08T00:52:43;102897.03;;;-5.50;87.88
33506;BME280;19843;51.040;13.782;2023-02-08T00:55:11;102892.47;;;-5.55;87.46
33506;BME280;19843;51.040;13.782;2023-02-08T00:57:38;102890.44;;;-5.40;87.53
33506;BME280;19843;51.040;13.782;2023-02-08T01:00:06;102898.28;;;-5.62;87.62
33506;BME280;19843;51.040;13.782;2023-02-08T01:02:36;102902.19;;;-5.74;88.49
33506;BME280;19843;51.040;13.782;2023-02-08T01:05:03;102899.78;;;-5.69;89.43
33506;BME280;19843;51.040;13.782;2023-02-08T01:07:31;102889.72;;;-5.81;89.92
33506;BME280;19843;51.040;13.782;2023-02-08T01:09:58;102888.53;;;-5.67;89.42
33506;BME280;19843;51.040;13.782;2023-02-08T01:12:26;102893.09;;;-5.61;89.39
33506;BME280;19843;51.040;13.782;2023-02-08T01:14:53;102891.69;;;-5.75;89.30
33506;BME280;19843;51.040;13.782;2023-02-08T01:17:20;102891.56;;;-5.78;89.92
33506;BME280;19843;51.040;13.782;2023-02-08T01:19:49;102891.06;;;-5.68;88.64
33506;BME280;19843;51.040;13.782;2023-02-08T01:22:16;102883.84;;;-5.75;88.42
33506;BME280;19843;51.040;13.782;2023-02-08T01:24:43;102879.75;;;-5.69;88.14
33506;BME280;19843;51.040;13.782;2023-02-08T01:27:11;102882.59;;;-5.85;88.20
33506;BME280;19843;51.040;13.782;2023-02-08T01:29:38;102878.75;;;-5.93;88.70
33506;BME280;19843;51.040;13.782;2023-02-08T01:32:05;102873.19;;;-6.02;89.48
33506;BME280;19843;51.040;13.782;2023-02-08T01:34:33;102879.88;;;-6.09;90.71
33506;BME280;19843;51.040;13.782;2023-02-08T01:37:01;102878.75;;;-5.93;90.06
33506;BME280;19843;51.040;13.782;2023-02-08T01:39:29;102882.19;;;-5.96;90.39
33506;BME280;19843;51.040;13.782;2023-02-08T01:41:56;102876.84;;;-5.99;90.06
33506;BME280;19843;51.040;13.782;2023-02-08T01:47:10;102871.44;;;-5.81;89.27
33506;BME280;19843;51.040;13.782;2023-02-08T01:49:37;102874.75;;;-5.85;89.47
33506;BME280;19843;51.040;13.782;2023-02-08T01:52:07;102872.50;;;-5.76;88.76
33506;BME280;19843;51.040;13.782;2023-02-08T01:54:36;102877.28;;;-5.87;89.58
33506;BME280;19843;51.040;13.782;2023-02-08T01:57:05;102868.84;;;-5.79;89.09
33506;BME280;19843;51.040;13.782;2023-02-08T01:59:34;102862.31;;;-5.68;89.04
33506;BME280;19843;51.040;13.782;2023-02-08T02:02:04;102859.44;;;-5.53;89.02
33506;BME280;19843;51.040;13.782;2023-02-08T02:04:35;102871.44;;;-5.58;88.54
33506;BME280;19843;51.040;13.782;2023-02-08T02:07:03;102868.69;;;-5.61;89.67
33506;BME280;19843;51.040;13.782;2023-02-08T02:09:32;102864.16;;;-5.66;89.26
33506;BME280;19843;51.040;13.782;2023-02-08T02:12:02;102866.41;;;-5.52;88.57
33506;BME280;19843;51.040;13.782;2023-02-08T02:14:31;102865.78;;;-5.47;87.72
33506;BME280;19843;51.040;13.782;2023-02-08T02:17:01;102857.97;;;-5.45;88.27
33506;BME280;19843;51.040;13.782;2023-02-08T02:19:32;102866.59;;;-5.48;87.86
33506;BME280;19843;51.040;13.782;2023-02-08T02:22:04;102852.53;;;-5.51;88.19
33506;BME280;19843;51.040;13.782;2023-02-08T02:24:41;102859.97;;;-5.62;88.16
33506;BME280;19843;51.040;13.782;2023-02-08T02:27:24;102855.56;;;-5.63;88.66
33506;BME280;19843;51.040;13.782;2023-02-08T02:30:08;102860.22;;;-5.56;87.81
33506;BME280;19843;51.040;13.782;2023-02-08T02:32:57;102859.13;;;-5.61;88.30
33506;BME280;19843;51.040;13.782;2023-02-08T02:35:28;102855.25;;;-5.71;88.15
33506;BME280;19843;51.040;13.782;2023-02-08T02:38:04;102858.81;;;-5.69;88.28
33506;BME280;19843;51.040;13.782;2023-02-08T02:40:38;102856.81;;;-5.76;87.77
33506;BME280;19843;51.040;13.782;2023-02-08T02:43:10;102857.59;;;-5.78;88.12
33506;BME280;19843;51.040;13.782;2023-02-08T02:45:58;102858.72;;;-5.72;88.12
33506;BME280;19843;51.040;13.782;2023-02-08T02:48:31;102860.06;;;-5.81;88.44
33506;BME280;19843;51.040;13.782;2023-02-08T02:51:05;102857.50;;;-5.80;87.98
33506;BME280;19843;51.040;13.782;2023-02-08T02:53:36;102856.91;;;-5.97;88.08
33506;BME280;19843;51.040;13.782;2023-02-08T02:56:09;102859.44;;;-5.98;88.43
33506;BME280;19843;51.040;13.782;2023-02-08T02:58:38;102847.38;;;-6.17;89.28
33506;BME280;19843;51.040;13.782;2023-02-08T03:01:06;102850.34;;;-6.08;89.01
33506;BME280;19843;51.040;13.782;2023-02-08T03:03:35;102851.63;;;-6.19;89.38
33506;BME280;19843;51.040;13.782;2023-02-08T03:06:03;102849.09;;;-5.95;89.38
33506;BME280;19843;51.040;13.782;2023-02-08T03:08:35;102841.63;;;-6.08;88.75
33506;BME280;19843;51.040;13.782;2023-02-08T03:11:11;102848.69;;;-6.27;89.24
33506;BME280;19843;51.040;13.782;2023-02-08T03:13:46;102857.09;;;-6.34;89.87
33506;BME280;19843;51.040;13.782;2023-02-08T03:16:19;102851.31;;;-6.06;89.34
33506;BME280;19843;51.040;13.782;2023-02-08T03:18:55;102849.25;;;-6.13;88.99
33506;BME280;19843;51.040;13.782;2023-02-08T03:21:30;102862.63;;;-6.05;88.05
33506;BME280;19843;51.040;13.782;2023-02-08T03:24:02;102858.09;;;-6.10;88.69
33506;BME280;19843;51.040;13.782;2023-02-08T03:26:35;102850.00;;;-6.16;87.74
33506;BME280;19843;51.040;13.782;2023-02-08T03:29:06;102862.84;;;-6.22;88.34
33506;BME280;19843;51.040;13.782;2023-02-08T03:31:36;102859.50;;;-6.18;88.48
33506;BME280;19843;51.040;13.782;2023-02-08T03:34:07;102861.50;;;-6.33;88.21
33506;BME280;19843;51.040;13.782;2023-02-08T03:36:39;102867.09;;;-6.45;89.56
33506;BME280;19843;51.040;13.782;2023-02-08T03:39:09;102868.50;;;-6.32;89.58
33506;BME280;19843;51.040;13.782;2023-02-08T03:41:39;102879.44;;;-6.41;89.62
33506;BME280;19843;51.040;13.782;2023-02-08T03:44:10;102878.06;;;-6.54;89.37
33506;BME280;19843;51.040;13.782;2023-02-08T03:46:39;102877.22;;;-6.32;88.85
33506;BME280;19843;51.040;13.782;2023-02-08T03:49:11;102883.50;;;-6.47;88.66
33506;BME280;19843;51.040;13.782;2023-02-08T03:51:40;102885.63;;;-6.39;88.35
33506;BME280;19843;51.040;13.782;2023-02-08T03:54:10;102890.38;;;-6.49;87.89
33506;BME280;19843;51.040;13.782;2023-02-08T03:56:40;102890.25;;;-6.53;88.70
33506;BME280;19843;51.040;13.782;2023-02-08T03:59:10;102892.00;;;-6.53;89.31
33506;BME280;19843;51.040;13.782;2023-02-08T04:01:40;102893.25;;;-6.43;89.30
33506;BME280;19843;51.040;13.782;2023-02-08T04:04:10;102896.03;;;-6.40;88.56
33506;BME280;19843;51.040;13.782;2023-02-08T04:06:39;102897.03;;;-6.37;89.14
33506;BME280;19843;51.040;13.782;2023-02-08T04:09:06;102895.88;;;-6.43;88.83
33506;BME280;19843;51.040;13.782;2023-02-08T04:11:33;102893.84;;;-6.51;89.61
33506;BME280;19843;51.040;13.782;2023-02-08T04:14:01;102894.72;;;-6.50;89.40
33506;BME280;19843;51.040;13.782;2023-02-08T04:16:28;102894.78;;;-6.48;89.03
33506;BME280;19843;51.040;13.782;2023-02-08T04:18:55;102895.09;;;-6.62;89.33
33506;BME280;19843;51.040;13.782;2023-02-08T04:21:24;102895.66;;;-6.69;89.49
33506;BME280;19843;51.040;13.782;2023-02-08T04:23:52;102888.09;;;-6.63;89.16
33506;BME280;19843;51.040;13.782;2023-02-08T04:26:19;102898.00;;;-6.75;88.65
33506;BME280;19843;51.040;13.782;2023-02-08T04:28:47;102900.28;;;-6.83;89.72
33506;BME280;19843;51.040;13.782;2023-02-08T04:31:14;102903.59;;;-6.66;89.75
33506;BME280;19843;51.040;13.782;2023-02-08T04:33:41;102894.69;;;-6.71;88.74
33506;BME280;19843;51.040;13.782;2023-02-08T04:36:09;102887.22;;;-6.83;88.49
33506;BME280;19843;51.040;13.782;2023-02-08T04:38:38;102892.28;;;-6.86;89.31
33506;BME280;19843;51.040;13.782;2023-02-08T04:41:05;102889.41;;;-6.73;88.44
33506;BME280;19843;51.040;13.782;2023-02-08T04:43:32;102890.16;;;-6.75;88.26
33506;BME280;19843;51.040;13.782;2023-02-08T04:46:00;102889.34;;;-6.74;88.03
33506;BME280;19843;51.040;13.782;2023-02-08T04:48:28;102875.53;;;-6.72;88.08
33506;BME280;19843;51.040;13.782;2023-02-08T04:50:55;102882.13;;;-6.80;87.45
33506;BME280;19843;51.040;13.782;2023-02-08T04:53:23;102881.81;;;-6.87;87.71
33506;BME280;19843;51.040;13.782;2023-02-08T04:55:52;102873.69;;;-6.74;87.40
33506;BME280;19843;51.040;13.782;2023-02-08T04:58:19;102874.84;;;-6.67;87.17
33506;BME280;19843;51.040;13.782;2023-02-08T05:00:46;102871.19;;;-6.71;87.01
33506;BME280;19843;51.040;13.782;2023-02-08T05:03:14;102873.41;;;-6.80;86.63
33506;BME280;19843;51.040;13.782;2023-02-08T05:05:41;102873.09;;;-6.88;87.28
33506;BME280;19843;51.040;13.782;2023-02-08T05:08:08;102870.69;;;-6.83;87.26
33506;BME280;19843;51.040;13.782;2023-02-08T05:10:36;102872.53;;;-6.81;88.38
33506;BME280;19843;51.040;13.782;2023-02-08T05:13:05;102866.41;;;-6.81;87.84
33506;BME280;19843;51.040;13.782;2023-02-08T05:15:32;102866.41;;;-6.81;87.98
33506;BME280;19843;51.040;13.782;2023-02-08T05:18:00;102859.97;;;-6.89;88.71
33506;BME280;19843;51.040;13.782;2023-02-08T05:20:27;102870.97;;;-6.97;89.05
33506;BME280;19843;51.040;13.782;2023-02-08T05:22:55;102869.09;;;-6.80;89.60
33506;BME280;19843;51.040;13.782;2023-02-08T05:25:23;102872.38;;;-6.84;89.71
33506;BME280;19843;51.040;13.782;2023-02-08T05:27:51;102873.41;;;-6.80;89.79
33506;BME280;19843;51.040;13.782;2023-02-08T05:30:20;102865.03;;;-6.73;89.67
33506;BME280;19843;51.040;13.782;2023-02-08T05:32:47;102874.00;;;-6.66;89.99
33506;BME280;19843;51.040;13.782;2023-02-08T05:35:15;102874.69;;;-6.70;89.74
33506;BME280;19843;51.040;13.782;2023-02-08T05:37:42;102880.75;;;-6.72;90.54
33506;BME280;19843;51.040;13.782;2023-02-08T05:40:10;102879.31;;;-6.44;90.01
33506;BME280;19843;51.040;13.782;2023-02-08T05:42:38;102873.72;;;-6.32;89.59
33506;BME280;19843;51.040;13.782;2023-02-08T05:45:07;102867.69;;;-6.31;89.26
33506;BME280;19843;51.040;13.782;2023-02-08T05:47:36;102874.63;;;-6.11;89.34
33506;BME280;19843;51.040;13.782;2023-02-08T05:50:04;102874.81;;;-6.06;89.24
33506;BME280;19843;51.040;13.782;2023-02-08T05:52:31;102875.81;;;-6.02;89.48
33506;BME280;19843;51.040;13.782;2023-02-08T05:54:58;102878.31;;;-5.83;89.84
33506;BME280;19843;51.040;13.782;2023-02-08T05:57:25;102879.28;;;-5.81;89.36
33506;BME280;19843;51.040;13.782;2023-02-08T05:59:56;102869.69;;;-5.80;89.20
33506;BME280;19843;51.040;13.782;2023-02-08T06:02:23;102878.09;;;-5.67;88.77
33506;BME280;19843;51.040;13.782;2023-02-08T06:04:52;102878.53;;;-5.77;89.67
33506;BME280;19843;51.040;13.782;2023-02-08T06:07:19;102874.63;;;-5.66;89.19
33506;BME280;19843;51.040;13.782;2023-02-08T06:09:46;102877.41;;;-5.61;89.62
33506;BME280;19843;51.040;13.782;2023-02-08T06:12:14;102872.44;;;-5.55;89.14
33506;BME280;19843;51.040;13.782;2023-02-08T06:14:41;102878.78;;;-5.48;88.92
33506;BME280;19843;51.040;13.782;2023-02-08T06:17:08;102888.47;;;-5.46;89.14
33506;BME280;19843;51.040;13.782;2023-02-08T06:19:35;102886.09;;;-5.39;88.56
33506;BME280;19843;51.040;13.782;2023-02-08T06:22:04;102884.50;;;-5.36;88.93
33506;BME280;19843;51.040;13.782;2023-02-08T06:24:31;102875.28;;;-5.26;89.03
33506;BME280;19843;51.040;13.782;2023-02-08T06:26:59;102884.13;;;-5.22;88.63
33506;BME280;19843;51.040;13.782;2023-02-08T06:29:26;102886.09;;;-5.17;88.79
33506;BME280;19843;51.040;13.782;2023-02-08T06:31:53;102883.63;;;-5.12;89.32
33506;BME280;19843;51.040;13.782;2023-02-08T06:34:21;102898.72;;;-5.05;88.54
33506;BME280;19843;51.040;13.782;2023-02-08T06:36:48;102896.09;;;-5.05;88.80
33506;BME280;19843;51.040;13.782;2023-02-08T06:39:17;102903.59;;;-4.92;87.74
33506;BME280;19843;51.040;13.782;2023-02-08T06:41:44;102897.00;;;-4.80;87.91
33506;BME280;19843;51.040;13.782;2023-02-08T06:44:11;102896.13;;;-4.81;87.82
33506;BME280;19843;51.040;13.782;2023-02-08T06:46:39;102886.97;;;-4.68;87.78
33506;BME280;19843;51.040;13.782;2023-02-08T06:49:06;102896.00;;;-4.60;86.86
33506;BME280;19843;51.040;13.782;2023-02-08T06:51:33;102895.03;;;-4.62;86.29
33506;BME280;19843;51.040;13.782;2023-02-08T06:54:01;102901.47;;;-4.54;86.09
33506;BME280;19843;51.040;13.782;2023-02-08T06:56:29;102906.09;;;-4.45;86.05
33506;BME280;19843;51.040;13.782;2023-02-08T06:58:57;102913.91;;;-4.47;85.62
33506;BME280;19843;51.040;13.782;2023-02-08T07:01:24;102903.81;;;-4.36;85.69
33506;BME280;19843;51.040;13.782;2023-02-08T07:03:51;102908.38;;;-4.30;84.91
33506;BME280;19843;51.040;13.782;2023-02-08T07:06:19;102910.34;;;-4.23;84.78
33506;BME280;19843;51.040;13.782;2023-02-08T07:08:46;102910.41;;;-4.22;84.62
33506;BME280;19843;51.040;13.782;2023-02-08T07:11:14;102914.56;;;-4.28;84.79
33506;BME280;19843;51.040;13.782;2023-02-08T07:13:44;102917.78;;;-4.10;84.53
33506;BME280;19843;51.040;13.782;2023-02-08T07:16:12;102911.97;;;-4.01;83.73
33506;BME280;19843;51.040;13.782;2023-02-08T07:18:40;102921.91;;;-3.91;83.65
33506;BME280;19843;51.040;13.782;2023-02-08T07:21:07;102919.34;;;-3.89;83.42
33506;BME280;19843;51.040;13.782;2023-02-08T07:23:36;102915.34;;;-3.78;82.78
33506;BME280;19843;51.040;13.782;2023-02-08T07:26:04;102922.50;;;-3.72;83.00
33506;BME280;19843;51.040;13.782;2023-02-08T07:28:32;102911.47;;;-3.62;82.75
33506;BME280;19843;51.040;13.782;2023-02-08T07:31:03;102916.78;;;-3.61;82.27
33506;BME280;19843;51.040;13.782;2023-02-08T07:33:30;102910.31;;;-3.43;81.52
33506;BME280;19843;51.040;13.782;2023-02-08T07:35:57;102910.41;;;-3.40;81.65
33506;BME280;19843;51.040;13.782;2023-02-08T07:38:25;102915.06;;;-3.31;81.12
33506;BME280;19843;51.040;13.782;2023-02-08T07:40:58;102913.47;;;-3.26;81.03
33506;BME280;19843;51.040;13.782;2023-02-08T07:43:25;102918.09;;;-3.18;80.90
33506;BME280;19843;51.040;13.782;2023-02-08T07:45:53;102911.94;;;-3.18;80.09
33506;BME280;19843;51.040;13.782;2023-02-08T07:48:21;102910.44;;;-3.10;80.34
33506;BME280;19843;51.040;13.782;2023-02-08T07:50:49;102905.72;;;-2.91;80.04
33506;BME280;19843;51.040;13.782;2023-02-08T07:53:16;102903.16;;;-2.90;79.33
33506;BME280;19843;51.040;13.782;2023-02-08T07:55:44;102905.09;;;-2.83;79.08
33506;BME280;19843;51.040;13.782;2023-02-08T07:58:11;102905.28;;;-2.77;79.36
33506;BME280;19843;51.040;13.782;2023-02-08T08:00:39;102898.41;;;-2.71;78.25
33506;BME280;19843;51.040;13.782;2023-02-08T08:03:07;102912.78;;;-2.57;77.78
33506;BME280;19843;51.040;13.782;2023-02-08T08:05:35;102913.03;;;-2.48;78.08
33506;BME280;19843;51.040;13.782;2023-02-08T08:08:05;102919.41;;;-2.40;77.52
33506;BME280;19843;51.040;13.782;2023-02-08T08:10:33;102925.44;;;-2.44;77.46
33506;BME280;19843;51.040;13.782;2023-02-08T08:13:00;102920.34;;;-2.38;76.66
33506;BME280;19843;51.040;13.782;2023-02-08T08:15:27;102927.34;;;-2.38;76.72
33506;BME280;19843;51.040;13.782;2023-02-08T08:17:55;102926.97;;;-2.19;76.80
33506;BME280;19843;51.040;13.782;2023-02-08T08:20:23;102921.22;;;-2.04;75.98
33506;BME280;19843;51.040;13.782;2023-02-08T08:22:51;102924.97;;;-1.94;75.98
33506;BME280;19843;51.040;13.782;2023-02-08T08:25:19;102923.31;;;-1.91;74.88
33506;BME280;19843;51.040;13.782;2023-02-08T08:27:46;102921.75;;;-1.82;74.94
33506;BME280;19843;51.040;13.782;2023-02-08T08:30:15;102929.75;;;-1.78;75.13
33506;BME280;19843;51.040;13.782;2023-02-08T08:32:42;102928.25;;;-1.68;73.80
33506;BME280;19843;51.040;13.782;2023-02-08T08:35:10;102920.47;;;-1.63;74.31
33506;BME280;19843;51.040;13.782;2023-02-08T08:37:37;102919.66;;;-1.59;73.35
33506;BME280;19843;51.040;13.782;2023-02-08T08:40:07;102932.59;;;-1.69;73.71
33506;BME280;19843;51.040;13.782;2023-02-08T08:42:34;102924.41;;;-1.44;73.35
33506;BME280;19843;51.040;13.782;2023-02-08T08:45:02;102927.06;;;-1.43;72.81
33506;BME280;19843;51.040;13.782;2023-02-08T08:47:30;102925.34;;;-1.41;73.27
33506;BME280;19843;51.040;13.782;2023-02-08T08:49:57;102926.50;;;-1.28;73.09
33506;BME280;19843;51.040;13.782;2023-02-08T08:52:24;102929.28;;;-1.22;72.45
33506;BME280;19843;51.040;13.782;2023-02-08T08:54:51;102925.88;;;-1.16;71.97
33506;BME280;19843;51.040;13.782;2023-02-08T08:57:20;102932.03;;;-1.17;71.73
33506;BME280;19843;51.040;13.782;2023-02-08T08:59:47;102927.97;;;-1.01;71.39
33506;BME280;19843;51.040;13.782;2023-02-08T09:02:15;102933.59;;;-0.85;71.86
33506;BME280;19843;51.040;13.782;2023-02-08T09:04:42;102931.63;;;-0.95;70.71
33506;BME280;19843;51.040;13.782;2023-02-08T09:07:09;102931.03;;;-0.80;70.78
33506;BME280;19843;51.040;13.782;2023-02-08T09:09:37;102931.50;;;-0.58;70.63
33506;BME280;19843;51.040;13.782;2023-02-08T09:12:06;102930.88;;;-0.44;69.68
33506;BME280;19843;51.040;13.782;2023-02-08T09:14:35;102926.31;;;-0.54;69.26
33506;BME280;19843;51.040;13.782;2023-02-08T09:17:02;102926.53;;;-0.43;69.52
33506;BME280;19843;51.040;13.782;2023-02-08T09:19:30;102918.81;;;-0.31;69.21
33506;BME280;19843;51.040;13.782;2023-02-08T09:21:58;102926.72;;;-0.31;68.46
33506;BME280;19843;51.040;13.782;2023-02-08T09:24:25;102921.41;;;-0.32;67.87
33506;BME280;19843;51.040;13.782;2023-02-08T09:26:53;102927.31;;;-0.46;67.61
33506;BME280;19843;51.040;13.782;2023-02-08T09:29:20;102934.50;;;-0.37;68.08
33506;BME280;19843;51.040;13.782;2023-02-08T09:31:49;102938.03;;;-0.38;67.60
33506;BME280;19843;51.040;13.782;2023-02-08T09:34:16;102933.81;;;-0.28;67.66
33506;BME280;19843;51.040;13.782;2023-02-08T09:36:44;102934.16;;;-0.08;66.80
33506;BME280;19843;51.040;13.782;2023-02-08T09:39:12;102939.72;;;0.07;66.13
33506;BME280;19843;51.040;13.782;2023-02-08T09:44:35;102942.72;;;0.30;65.86
33506;BME280;19843;51.040;13.782;2023-02-08T09:47:09;102943.88;;;0.46;65.09
33506;BME280;19843;51.040;13.782;2023-02-08T09:49:39;102951.78;;;0.46;64.72
33506;BME280;19843;51.040;13.782;2023-02-08T09:52:09;102946.56;;;0.51;64.78
33506;BME280;19843;51.040;13.782;2023-02-08T09:54:40;102941.06;;;0.37;64.62
33506;BME280;19843;51.040;13.782;2023-02-08T09:57:23;102941.25;;;0.49;64.49
33506;BME280;19843;51.040;13.782;2023-02-08T09:59:53;102946.44;;;0.41;64.54
33506;BME280;19843;51.040;13.782;2023-02-08T10:02:24;102952.81;;;0.56;64.57
33506;BME280;19843;51.040;13.782;2023-02-08T10:04:56;102959.03;;;0.59;64.44
33506;BME280;19843;51.040;13.782;2023-02-08T10:07:24;102949.56;;;0.77;63.77
33506;BME280;19843;51.040;13.782;2023-02-08T10:09:52;102943.31;;;0.70;62.65
33506;BME280;19843;51.040;13.782;2023-02-08T10:12:22;102953.25;;;0.88;62.96
33506;BME280;19843;51.040;13.782;2023-02-08T10:14:58;102934.94;;;1.00;62.27
33506;BME280;19843;51.040;13.782;2023-02-08T10:17:42;102928.75;;;1.00;61.50
33506;BME280;19843;51.040;13.782;2023-02-08T10:20:18;102939.22;;;0.92;62.03
33506;BME280;19843;51.040;13.782;2023-02-08T10:22:50;102938.44;;;0.98;62.03
33506;BME280;19843;51.040;13.782;2023-02-08T10:25:36;102935.56;;;0.81;61.65
33506;BME280;19843;51.040;13.782;2023-02-08T10:28:17;102944.53;;;0.92;61.41
33506;BME280;19843;51.040;13.782;2023-02-08T10:30:51;102942.66;;;0.85;61.62
33506;BME280;19843;51.040;13.782;2023-02-08T10:33:25;102935.88;;;1.06;61.20
33506;BME280;19843;51.040;13.782;2023-02-08T10:35:53;102925.47;;;1.16;61.02
33506;BME280;19843;51.040;13.782;2023-02-08T10:38:24;102929.06;;;1.23;60.83
33506;BME280;19843;51.040;13.782;2023-02-08T10:41:05;102903.53;;;1.25;59.92
33506;BME280;19843;51.040;13.782;2023-02-08T10:43:35;102917.41;;;1.07;60.26
33506;BME280;19843;51.040;13.782;2023-02-08T10:46:08;102909.50;;;1.09;60.38
33506;BME280;19843;51.040;13.782;2023-02-08T10:48:43;102901.72;;;1.21;60.10
33506;BME280;19843;51.040;13.782;2023-02-08T10:51:13;102906.03;;;1.13;60.06
33506;BME280;19843;51.040;13.782;2023-02-08T10:53:41;102905.28;;;1.24;60.28
33506;BME280;19843;51.040;13.782;2023-02-08T10:56:13;102896.59;;;1.35;59.70
33506;BME280;19843;51.040;13.782;2023-02-08T10:58:48;102895.72;;;1.37;59.61
33506;BME280;19843;51.040;13.782;2023-02-08T11:01:15;102891.16;;;1.22;60.18
33506;BME280;19843;51.040;13.782;2023-02-08T11:06:26;102870.44;;;1.65;59.36
33506;BME280;19843;51.040;13.782;2023-02-08T11:08:54;102862.41;;;1.53;58.96
33506;BME280;19843;51.040;13.782;2023-02-08T11:11:23;102867.81;;;1.64;58.69
33506;BME280;19843;51.040;13.782;2023-02-08T11:14:04;102861.44;;;1.45;58.76
33506;BME280;19843;51.040;13.782;2023-02-08T11:16:31;102862.28;;;1.42;59.13
33506;BME280;19843;51.040;13.782;2023-02-08T11:18:59;102864.16;;;1.53;58.87
33506;BME280;19843;51.040;13.782;2023-02-08T11:21:29;102861.59;;;1.60;58.72
33506;BME280;19843;51.040;13.782;2023-02-08T11:23:59;102863.28;;;1.54;58.63
33506;BME280;19843;51.040;13.782;2023-02-08T11:26:31;102855.44;;;1.63;58.33
33506;BME280;19843;51.040;13.782;2023-02-08T11:29:00;102854.66;;;1.75;58.60
33506;BME280;19843;51.040;13.782;2023-02-08T11:31:28;102859.09;;;1.76;57.90
33506;BME280;19843;51.040;13.782;2023-02-08T11:33:59;102866.13;;;1.77;58.26
33506;BME280;19843;51.040;13.782;2023-02-08T11:36:30;102861.88;;;1.91;57.67
33506;BME280;19843;51.040;13.782;2023-02-08T11:38:59;102860.88;;;1.78;57.42
33506;BME280;19843;51.040;13.782;2023-02-08T11:41:27;102867.91;;;1.79;57.94
33506;BME280;19843;51.040;13.782;2023-02-08T11:43:56;102852.97;;;1.83;57.80
33506;BME280;19843;51.040;13.782;2023-02-08T11:46:26;102844.19;;;1.87;57.66
33506;BME280;19843;51.040;13.782;2023-02-08T11:48:54;102854.06;;;2.09;57.46
33506;BME280;19843;51.040;13.782;2023-02-08T11:51:23;102845.25;;;2.12;56.60
33506;BME280;19843;51.040;13.782;2023-02-08T11:53:53;102852.97;;;1.83;57.70
33506;BME280;19843;51.040;13.782;2023-02-08T11:56:22;102849.53;;;1.95;57.22
33506;BME280;19843;51.040;13.782;2023-02-08T11:58:58;102854.06;;;2.11;57.12
33506;BME280;19843;51.040;13.782;2023-02-08T12:01:26;102847.81;;;1.98;56.91
33506;BME280;19843;51.040;13.782;2023-02-08T12:03:55;102853.97;;;1.96;56.33
33506;BME280;19843;51.040;13.782;2023-02-08T12:06:34;102845.13;;;1.97;56.29
33506;BME280;19843;51.040;13.782;2023-02-08T12:09:08;102845.97;;;1.90;56.14
33506;BME280;19843;51.040;13.782;2023-02-08T12:11:41;102859.25;;;1.94;56.96
33506;BME280;19843;51.040;13.782;2023-02-08T12:16:56;102852.31;;;2.13;56.49
33506;BME280;19843;51.040;13.782;2023-02-08T12:19:37;102854.13;;;2.17;55.68
33506;BME280;19843;51.040;13.782;2023-02-08T12:22:12;102863.03;;;2.30;56.04
33506;BME280;19843;51.040;13.782;2023-02-08T12:24:45;102847.06;;;2.19;56.08
33506;BME280;19843;51.040;13.782;2023-02-08T12:27:26;102838.22;;;2.14;56.06
33506;BME280;19843;51.040;13.782;2023-02-08T12:29:59;102831.13;;;2.13;56.08
33506;BME280;19843;51.040;13.782;2023-02-08T12:32:33;102826.78;;;2.21;56.71
33506;BME280;19843;51.040;13.782;2023-02-08T12:35:10;102827.47;;;1.94;56.62
33506;BME280;19843;51.040;13.782;2023-02-08T12:37:55;102830.13;;;1.94;56.19
33506;BME280;19843;51.040;13.782;2023-02-08T12:40:45;102833.72;;;2.02;56.17
33506;BME280;19843;51.040;13.782;2023-02-08T12:43:19;102825.78;;;2.01;55.85
33506;BME280;19843;51.040;13.782;2023-02-08T12:48:41;102820.31;;;1.79;55.51
33506;BME280;19843;51.040;13.782;2023-02-08T12:51:13;102825.69;;;1.90;55.36
33506;BME280;19843;51.040;13.782;2023-02-08T12:53:44;102826.56;;;1.89;55.02
33506;BME280;19843;51.040;13.782;2023-02-08T12:56:14;102821.28;;;1.91;54.77
33506;BME280;19843;51.040;13.782;2023-02-08T12:58:44;102822.22;;;1.99;54.49
33506;BME280;19843;51.040;13.782;2023-02-08T13:01:13;102823.91;;;1.91;54.42
33506;BME280;19843;51.040;13.782;2023-02-08T13:03:42;102825.72;;;1.92;54.60
33506;BME280;19843;51.040;13.782;2023-02-08T13:06:12;102818.63;;;1.91;54.68
33506;BME280;19843;51.040;13.782;2023-02-08T13:08:42;102823.91;;;1.87;54.64